sensor_id;sensor_type;location;lat;lon;timestamp;pressure;altitude;pressure_sealevel;temperature;humidity
81243;BME280;70716;50.074;14.496;2023-07-30T00:02:02;98461.94;;;16.90;79.44
81243;BME280;70716;50.074;14.496;2023-07-30T00:04:28;98467.75;;;16.85;79.81
81243;BME280;70716;50.074;14.496;2023-07-30T00:06:53;98460.59;;;16.80;80.21
81243;BME280;70716;50.074;14.496;2023-07-30T00:09:21;98456.94;;;16.73;80.21
81243;BME280;70716;50.074;14.496;2023-07-30T00:11:47;98465.91;;;16.70;80.18
81243;BME280;70716;50.074;14.496;2023-07-30T00:14:12;98465.13;;;16.69;80.03
81243;BME280;70716;50.074;14.496;2023-07-30T00:16:38;98464.69;;;16.67;80.21
81243;BME280;70716;50.074;14.496;2023-07-30T00:19:03;98463.09;;;16.66;80.75
81243;BME280;70716;50.074;14.496;2023-07-30T00:21:28;98463.69;;;16.56;80.82
81243;BME280;70716;50.074;14.496;2023-07-30T00:23:54;98466.84;;;16.58;81.04
81243;BME280;70716;50.074;14.496;2023-07-30T00:26:19;98460.50;;;16.54;80.79
81243;BME280;70716;50.074;14.496;2023-07-30T00:28:45;98460.84;;;16.52;81.02
81243;BME280;70716;50.074;14.496;2023-07-30T00:31:10;98458.91;;;16.53;81.56
81243;BME280;70716;50.074;14.496;2023-07-30T00:33:36;98463.53;;;16.49;81.42
81243;BME280;70716;50.074;14.496;2023-07-30T00:36:01;98459.19;;;16.48;81.44
81243;BME280;70716;50.074;14.496;2023-07-30T00:38:26;98456.16;;;16.53;81.50
81243;BME280;70716;50.074;14.496;2023-07-30T00:40:52;98452.59;;;16.52;81.51
81243;BME280;70716;50.074;14.496;2023-07-30T00:43:18;98443.13;;;16.50;81.24
81243;BME280;70716;50.074;14.496;2023-07-30T00:45:44;98443.91;;;16.50;81.44
81243;BME280;70716;50.074;14.496;2023-07-30T00:48:11;98439.59;;;16.49;81.66
81243;BME280;70716;50.074;14.496;2023-07-30T00:50:46;98444.22;;;16.45;81.81
81243;BME280;70716;50.074;14.496;2023-07-30T00:53:14;98446.91;;;16.42;81.56
81243;BME280;70716;50.074;14.496;2023-07-30T00:55:40;98449.59;;;16.38;81.95
81243;BME280;70716;50.074;14.496;2023-07-30T00:58:09;98442.91;;;16.39;82.07
81243;BME280;70716;50.074;14.496;2023-07-30T01:00:35;98445.66;;;16.39;82.58
81243;BME280;70716;50.074;14.496;2023-07-30T01:03:00;98447.13;;;16.33;82.27
81243;BME280;70716;50.074;14.496;2023-07-30T01:05:26;98439.97;;;16.29;82.72
81243;BME280;70716;50.074;14.496;2023-07-30T01:07:51;98442.28;;;16.27;82.75
81243;BME280;70716;50.074;14.496;2023-07-30T01:10:19;98439.91;;;16.25;82.58
81243;BME280;70716;50.074;14.496;2023-07-30T01:12:46;98446.13;;;16.22;83.18
81243;BME280;70716;50.074;14.496;2023-07-30T01:15:12;98441.72;;;16.17;83.60
81243;BME280;70716;50.074;14.496;2023-07-30T01:17:41;98441.66;;;16.14;83.10
81243;BME280;70716;50.074;14.496;2023-07-30T01:20:07;98444.06;;;16.15;83.25
81243;BME280;70716;50.074;14.496;2023-07-30T01:22:33;98448.75;;;16.15;83.44
81243;BME280;70716;50.074;14.496;2023-07-30T01:24:58;98449.13;;;16.13;83.45
81243;BME280;70716;50.074;14.496;2023-07-30T01:27:25;98453.47;;;16.14;83.43
81243;BME280;70716;50.074;14.496;2023-07-30T01:29:56;98450.34;;;16.16;83.70
81243;BME280;70716;50.074;14.496;2023-07-30T01:32:29;98451.56;;;16.18;83.76
81243;BME280;70716;50.074;14.496;2023-07-30T01:35:54;98459.06;;;16.22;83.65
81243;BME280;70716;50.074;14.496;2023-07-30T01:41:37;98454.38;;;16.22;83.49
81243;BME280;70716;50.074;14.496;2023-07-30T01:47:37;98465.44;;;16.26;83.38
81243;BME280;70716;50.074;14.496;2023-07-30T01:50:09;98463.41;;;16.23;83.50
81243;BME280;70716;50.074;14.496;2023-07-30T01:56:54;98470.75;;;16.15;83.69
81243;BME280;70716;50.074;14.496;2023-07-30T01:59:50;98468.72;;;16.12;83.85
81243;BME280;70716;50.074;14.496;2023-07-30T02:03:10;98472.63;;;16.11;83.69
81243;BME280;70716;50.074;14.496;2023-07-30T02:09:35;98469.22;;;15.98;84.68
81243;BME280;70716;50.074;14.496;2023-07-30T02:18:20;98464.28;;;15.88;85.92
81243;BME280;70716;50.074;14.496;2023-07-30T02:24:56;98464.50;;;15.79;85.74
81243;BME280;70716;50.074;14.496;2023-07-30T02:27:59;98466.09;;;15.80;86.23
81243;BME280;70716;50.074;14.496;2023-07-30T02:30:51;98460.53;;;15.77;85.91
81243;BME280;70716;50.074;14.496;2023-07-30T02:40:53;98468.16;;;15.68;86.96
81243;BME280;70716;50.074;14.496;2023-07-30T02:44:09;98471.13;;;15.59;87.02
81243;BME280;70716;50.074;14.496;2023-07-30T02:50:12;98462.47;;;15.57;87.78
81243;BME280;70716;50.074;14.496;2023-07-30T03:00:27;98461.19;;;15.55;87.13
81243;BME280;70716;50.074;14.496;2023-07-30T03:02:56;98457.75;;;15.58;87.01
81243;BME280;70716;50.074;14.496;2023-07-30T03:05:43;98463.38;;;15.65;86.55
81243;BME280;70716;50.074;14.496;2023-07-30T03:12:10;98460.09;;;15.75;86.45
81243;BME280;70716;50.074;14.496;2023-07-30T03:14:56;98456.19;;;15.76;86.16
81243;BME280;70716;50.074;14.496;2023-07-30T03:18:27;98456.25;;;15.79;86.10
81243;BME280;70716;50.074;14.496;2023-07-30T03:21:25;98460.97;;;15.79;86.79
81243;BME280;70716;50.074;14.496;2023-07-30T03:24:40;98452.28;;;15.77;86.66
81243;BME280;70716;50.074;14.496;2023-07-30T03:27:35;98464.94;;;15.81;86.37
81243;BME280;70716;50.074;14.496;2023-07-30T03:30:28;98455.91;;;15.81;86.74
81243;BME280;70716;50.074;14.496;2023-07-30T03:33:29;98462.63;;;15.83;86.88
81243;BME280;70716;50.074;14.496;2023-07-30T03:36:11;98461.38;;;15.81;86.93
81243;BME280;70716;50.074;14.496;2023-07-30T03:39:56;98457.22;;;15.87;86.83
81243;BME280;70716;50.074;14.496;2023-07-30T03:46:09;98456.41;;;15.87;87.20
81243;BME280;70716;50.074;14.496;2023-07-30T03:49:24;98448.53;;;15.85;87.11
81243;BME280;70716;50.074;14.496;2023-07-30T03:52:02;98443.47;;;15.87;86.91
81243;BME280;70716;50.074;14.496;2023-07-30T03:54:39;98451.44;;;15.92;86.44
81243;BME280;70716;50.074;14.496;2023-07-30T03:57:29;98443.25;;;15.96;86.50
81243;BME280;70716;50.074;14.496;2023-07-30T03:59:58;98449.69;;;16.03;85.98
81243;BME280;70716;50.074;14.496;2023-07-30T04:02:26;98447.09;;;16.10;86.09
81243;BME280;70716;50.074;14.496;2023-07-30T04:04:58;98437.69;;;16.11;86.06
81243;BME280;70716;50.074;14.496;2023-07-30T04:07:55;98438.56;;;16.15;86.04
81243;BME280;70716;50.074;14.496;2023-07-30T04:10:48;98442.56;;;16.22;85.65
81243;BME280;70716;50.074;14.496;2023-07-30T04:13:54;98438.81;;;16.30;85.55
81243;BME280;70716;50.074;14.496;2023-07-30T04:17:00;98440.06;;;16.55;84.44
81243;BME280;70716;50.074;14.496;2023-07-30T04:19:38;98449.88;;;16.75;83.88
81243;BME280;70716;50.074;14.496;2023-07-30T04:22:28;98456.38;;;16.87;84.49
81243;BME280;70716;50.074;14.496;2023-07-30T04:25:11;98461.69;;;16.99;83.33
81243;BME280;70716;50.074;14.496;2023-07-30T04:30:53;98471.84;;;17.17;82.01
81243;BME280;70716;50.074;14.496;2023-07-30T04:34:02;98471.91;;;17.21;82.04
81243;BME280;70716;50.074;14.496;2023-07-30T04:43:42;98464.09;;;17.53;81.14
81243;BME280;70716;50.074;14.496;2023-07-30T04:46:39;98478.13;;;17.44;81.54
81243;BME280;70716;50.074;14.496;2023-07-30T04:49:28;98481.00;;;17.52;81.17
81243;BME280;70716;50.074;14.496;2023-07-30T04:52:12;98482.66;;;17.56;81.50
81243;BME280;70716;50.074;14.496;2023-07-30T04:54:59;98471.06;;;17.70;81.17
81243;BME280;70716;50.074;14.496;2023-07-30T04:57:54;98475.84;;;17.73;80.48
81243;BME280;70716;50.074;14.496;2023-07-30T05:00:30;98476.84;;;17.88;80.35
81243;BME280;70716;50.074;14.496;2023-07-30T05:03:47;98479.97;;;18.20;79.38
81243;BME280;70716;50.074;14.496;2023-07-30T05:09:46;98496.69;;;18.67;77.58
81243;BME280;70716;50.074;14.496;2023-07-30T05:12:59;98497.66;;;18.82;75.63
81243;BME280;70716;50.074;14.496;2023-07-30T05:19:27;98492.75;;;19.09;74.75
81243;BME280;70716;50.074;14.496;2023-07-30T05:21:45;98492.03;;;19.19;74.59
81243;BME280;70716;50.074;14.496;2023-07-30T05:24:28;98483.88;;;19.33;74.26
81243;BME280;70716;50.074;14.496;2023-07-30T05:27:12;98493.34;;;19.32;74.31
81243;BME280;70716;50.074;14.496;2023-07-30T05:29:43;98494.72;;;19.05;74.56
81243;BME280;70716;50.074;14.496;2023-07-30T05:35:47;98495.88;;;19.04;75.17
81243;BME280;70716;50.074;14.496;2023-07-30T05:38:24;98500.59;;;19.00;75.20
81243;BME280;70716;50.074;14.496;2023-07-30T05:41:19;98497.09;;;19.10;75.35
81243;BME280;70716;50.074;14.496;2023-07-30T05:44:02;98496.66;;;19.01;74.88
81243;BME280;70716;50.074;14.496;2023-07-30T05:46:55;98499.72;;;18.92;75.27
81243;BME280;70716;50.074;14.496;2023-07-30T05:53:16;98500.13;;;18.94;75.74
81243;BME280;70716;50.074;14.496;2023-07-30T05:56:08;98507.94;;;18.85;75.45
81243;BME280;70716;50.074;14.496;2023-07-30T05:58:46;98505.50;;;18.80;75.69
81243;BME280;70716;50.074;14.496;2023-07-30T06:01:15;98512.31;;;18.90;75.79
81243;BME280;70716;50.074;14.496;2023-07-30T06:04:04;98507.59;;;18.90;75.47
81243;BME280;70716;50.074;14.496;2023-07-30T06:07:02;98517.16;;;19.00;75.37
81243;BME280;70716;50.074;14.496;2023-07-30T06:09:46;98515.13;;;18.93;75.40
81243;BME280;70716;50.074;14.496;2023-07-30T06:12:29;98513.44;;;18.85;75.80
81243;BME280;70716;50.074;14.496;2023-07-30T06:15:27;98507.13;;;18.85;75.78
81243;BME280;70716;50.074;14.496;2023-07-30T06:18:05;98517.94;;;19.00;75.61
81243;BME280;70716;50.074;14.496;2023-07-30T06:20:52;98518.75;;;19.01;75.36
81243;BME280;70716;50.074;14.496;2023-07-30T06:23:21;98518.66;;;18.94;75.66
81243;BME280;70716;50.074;14.496;2023-07-30T06:26:07;98514.63;;;18.84;75.75
81243;BME280;70716;50.074;14.496;2023-07-30T06:35:10;98514.44;;;19.03;75.34
81243;BME280;70716;50.074;14.496;2023-07-30T06:37:39;98516.78;;;19.01;75.66
81243;BME280;70716;50.074;14.496;2023-07-30T06:40:17;98521.13;;;19.02;75.12
81243;BME280;70716;50.074;14.496;2023-07-30T06:43:10;98509.72;;;19.11;75.19
81243;BME280;70716;50.074;14.496;2023-07-30T06:45:37;98509.88;;;19.29;75.13
81243;BME280;70716;50.074;14.496;2023-07-30T06:48:23;98507.47;;;19.24;75.25
81243;BME280;70716;50.074;14.496;2023-07-30T06:51:05;98516.31;;;19.40;73.98
81243;BME280;70716;50.074;14.496;2023-07-30T06:53:47;98520.78;;;19.52;73.58
81243;BME280;70716;50.074;14.496;2023-07-30T06:56:58;98523.63;;;19.66;73.34
81243;BME280;70716;50.074;14.496;2023-07-30T07:06:32;98532.19;;;20.08;71.25
81243;BME280;70716;50.074;14.496;2023-07-30T07:12:29;98557.16;;;19.64;73.59
81243;BME280;70716;50.074;14.496;2023-07-30T07:36:13;98574.38;;;19.06;77.23
81243;BME280;70716;50.074;14.496;2023-07-30T07:39:22;98567.63;;;18.97;77.84
81243;BME280;70716;50.074;14.496;2023-07-30T07:51:40;98616.53;;;18.66;81.13
81243;BME280;70716;50.074;14.496;2023-07-30T07:57:28;98625.66;;;18.40;79.13
81243;BME280;70716;50.074;14.496;2023-07-30T07:59:56;98607.78;;;17.55;81.81
81243;BME280;70716;50.074;14.496;2023-07-30T08:02:21;98602.09;;;17.22;82.14
81243;BME280;70716;50.074;14.496;2023-07-30T08:04:48;98601.28;;;16.98;83.60
81243;BME280;70716;50.074;14.496;2023-07-30T08:07:13;98589.63;;;16.86;83.96
81243;BME280;70716;50.074;14.496;2023-07-30T08:09:43;98588.31;;;16.79;84.86
81243;BME280;70716;50.074;14.496;2023-07-30T08:12:20;98594.50;;;16.73;85.25
81243;BME280;70716;50.074;14.496;2023-07-30T08:14:45;98587.16;;;16.61;86.10
81243;BME280;70716;50.074;14.496;2023-07-30T08:17:34;98587.59;;;16.63;85.62
81243;BME280;70716;50.074;14.496;2023-07-30T08:20:03;98588.25;;;16.57;86.99
81243;BME280;70716;50.074;14.496;2023-07-30T08:22:32;98593.25;;;16.51;87.06
81243;BME280;70716;50.074;14.496;2023-07-30T08:25:45;98590.06;;;16.49;87.39
81243;BME280;70716;50.074;14.496;2023-07-30T08:28:20;98601.41;;;16.47;87.79
81243;BME280;70716;50.074;14.496;2023-07-30T08:34:15;98598.66;;;16.47;87.96
81243;BME280;70716;50.074;14.496;2023-07-30T08:37:01;98601.69;;;16.42;88.07
81243;BME280;70716;50.074;14.496;2023-07-30T08:39:26;98602.56;;;16.46;87.37
81243;BME280;70716;50.074;14.496;2023-07-30T08:41:54;98591.13;;;16.44;87.45
81243;BME280;70716;50.074;14.496;2023-07-30T08:44:32;98593.09;;;16.44;87.48
81243;BME280;70716;50.074;14.496;2023-07-30T08:46:58;98588.91;;;16.50;87.75
81243;BME280;70716;50.074;14.496;2023-07-30T08:49:26;98577.75;;;16.43;88.50
81243;BME280;70716;50.074;14.496;2023-07-30T08:52:02;98579.63;;;16.39;88.27
81243;BME280;70716;50.074;14.496;2023-07-30T08:54:49;98575.22;;;16.34;89.50
81243;BME280;70716;50.074;14.496;2023-07-30T09:00:31;98578.09;;;16.41;89.78
81243;BME280;70716;50.074;14.496;2023-07-30T09:03:04;98578.41;;;16.56;89.25
81243;BME280;70716;50.074;14.496;2023-07-30T09:05:52;98577.63;;;16.74;88.14
81243;BME280;70716;50.074;14.496;2023-07-30T09:08:21;98583.31;;;16.85;87.95
81243;BME280;70716;50.074;14.496;2023-07-30T09:11:12;98580.06;;;16.99;87.59
81243;BME280;70716;50.074;14.496;2023-07-30T09:16:38;98583.13;;;17.16;87.37
81243;BME280;70716;50.074;14.496;2023-07-30T09:19:05;98587.72;;;17.32;87.52
81243;BME280;70716;50.074;14.496;2023-07-30T09:21:34;98584.53;;;17.53;86.06
81243;BME280;70716;50.074;14.496;2023-07-30T09:24:25;98588.47;;;17.74;86.11
81243;BME280;70716;50.074;14.496;2023-07-30T09:26:57;98594.84;;;18.08;85.12
81243;BME280;70716;50.074;14.496;2023-07-30T09:30:00;98588.47;;;18.31;85.03
81243;BME280;70716;50.074;14.496;2023-07-30T09:32:32;98587.31;;;18.62;83.83
81243;BME280;70716;50.074;14.496;2023-07-30T09:35:27;98583.47;;;18.70;82.81
81243;BME280;70716;50.074;14.496;2023-07-30T09:38:03;98581.97;;;19.13;80.70
81243;BME280;70716;50.074;14.496;2023-07-30T09:40:33;98582.78;;;19.17;80.11
81243;BME280;70716;50.074;14.496;2023-07-30T09:43:05;98575.31;;;19.58;80.00
81243;BME280;70716;50.074;14.496;2023-07-30T09:45:36;98578.03;;;20.09;79.46
81243;BME280;70716;50.074;14.496;2023-07-30T09:48:13;98570.25;;;20.33;80.04
81243;BME280;70716;50.074;14.496;2023-07-30T09:50:45;98565.06;;;20.28;75.75
81243;BME280;70716;50.074;14.496;2023-07-30T09:56:03;98574.00;;;20.72;77.00
81243;BME280;70716;50.074;14.496;2023-07-30T09:58:39;98575.97;;;20.68;75.36
81243;BME280;70716;50.074;14.496;2023-07-30T10:01:13;98574.81;;;20.76;75.60
81243;BME280;70716;50.074;14.496;2023-07-30T10:03:42;98578.41;;;20.98;78.20
81243;BME280;70716;50.074;14.496;2023-07-30T10:06:13;98574.56;;;21.53;76.85
81243;BME280;70716;50.074;14.496;2023-07-30T10:08:40;98578.53;;;21.66;76.17
81243;BME280;70716;50.074;14.496;2023-07-30T10:11:13;98576.53;;;21.84;74.93
81243;BME280;70716;50.074;14.496;2023-07-30T10:14:00;98574.16;;;21.93;73.50
81243;BME280;70716;50.074;14.496;2023-07-30T10:16:33;98575.72;;;22.05;74.92
81243;BME280;70716;50.074;14.496;2023-07-30T10:19:34;98578.81;;;22.43;72.74
81243;BME280;70716;50.074;14.496;2023-07-30T10:22:34;98573.56;;;22.62;72.01
81243;BME280;70716;50.074;14.496;2023-07-30T10:28:03;98582.31;;;22.57;70.63
81243;BME280;70716;50.074;14.496;2023-07-30T10:30:37;98570.72;;;22.77;69.07
81243;BME280;70716;50.074;14.496;2023-07-30T10:36:31;98570.50;;;23.75;68.09
81243;BME280;70716;50.074;14.496;2023-07-30T10:41:54;98575.13;;;23.40;67.70
81243;BME280;70716;50.074;14.496;2023-07-30T10:44:28;98567.91;;;23.53;65.69
81243;BME280;70716;50.074;14.496;2023-07-30T10:47:02;98565.13;;;23.53;66.32
81243;BME280;70716;50.074;14.496;2023-07-30T10:49:39;98553.50;;;23.10;67.70
81243;BME280;70716;50.074;14.496;2023-07-30T10:52:36;98549.56;;;23.04;66.65
81243;BME280;70716;50.074;14.496;2023-07-30T10:55:13;98548.28;;;22.43;67.64
81243;BME280;70716;50.074;14.496;2023-07-30T10:57:52;98550.56;;;22.62;68.53
81243;BME280;70716;50.074;14.496;2023-07-30T11:00:17;98548.81;;;22.96;66.52
81243;BME280;70716;50.074;14.496;2023-07-30T11:03:03;98546.41;;;23.05;65.16
81243;BME280;70716;50.074;14.496;2023-07-30T11:05:53;98544.19;;;23.83;64.18
81243;BME280;70716;50.074;14.496;2023-07-30T11:15:54;98540.72;;;23.71;65.74
81243;BME280;70716;50.074;14.496;2023-07-30T11:26:02;98532.84;;;24.04;57.50
81243;BME280;70716;50.074;14.496;2023-07-30T11:35:34;98519.03;;;23.93;56.34
81243;BME280;70716;50.074;14.496;2023-07-30T11:38:49;98513.59;;;24.20;56.75
81243;BME280;70716;50.074;14.496;2023-07-30T11:45:42;98520.00;;;24.51;56.20
81243;BME280;70716;50.074;14.496;2023-07-30T11:51:41;98499.69;;;24.51;56.20
81243;BME280;70716;50.074;14.496;2023-07-30T11:54:07;98499.53;;;24.31;54.83
81243;BME280;70716;50.074;14.496;2023-07-30T11:56:34;98497.69;;;24.21;56.10
81243;BME280;70716;50.074;14.496;2023-07-30T11:59:27;98505.94;;;24.28;55.53
81243;BME280;70716;50.074;14.496;2023-07-30T12:02:22;98501.38;;;24.45;55.55
81243;BME280;70716;50.074;14.496;2023-07-30T12:05:01;98498.31;;;24.66;56.20
81243;BME280;70716;50.074;14.496;2023-07-30T12:07:42;98505.13;;;24.61;54.64
81243;BME280;70716;50.074;14.496;2023-07-30T12:13:20;98508.50;;;24.12;56.75
81243;BME280;70716;50.074;14.496;2023-07-30T12:15:56;98499.53;;;23.97;56.49
81243;BME280;70716;50.074;14.496;2023-07-30T12:18:27;98507.53;;;23.91;55.81
81243;BME280;70716;50.074;14.496;2023-07-30T12:21:07;98497.69;;;23.83;56.73
81243;BME280;70716;50.074;14.496;2023-07-30T12:23:59;98503.47;;;23.62;56.97
81243;BME280;70716;50.074;14.496;2023-07-30T12:26:25;98502.19;;;23.70;57.62
81243;BME280;70716;50.074;14.496;2023-07-30T12:35:50;98498.09;;;24.19;55.28
81243;BME280;70716;50.074;14.496;2023-07-30T12:42:05;98501.47;;;24.00;53.84
81243;BME280;70716;50.074;14.496;2023-07-30T12:45:12;98494.22;;;23.72;54.81
81243;BME280;70716;50.074;14.496;2023-07-30T12:51:24;98495.13;;;23.99;54.45
81243;BME280;70716;50.074;14.496;2023-07-30T12:58:29;98515.50;;;24.27;55.95
81243;BME280;70716;50.074;14.496;2023-07-30T13:05:15;98530.38;;;23.20;58.82
81243;BME280;70716;50.074;14.496;2023-07-30T13:15:26;98523.66;;;23.69;56.75
81243;BME280;70716;50.074;14.496;2023-07-30T13:18:24;98515.84;;;23.57;57.04
81243;BME280;70716;50.074;14.496;2023-07-30T13:24:34;98504.78;;;23.47;59.20
81243;BME280;70716;50.074;14.496;2023-07-30T13:27:31;98503.38;;;23.69;57.62
81243;BME280;70716;50.074;14.496;2023-07-30T13:36:54;98513.97;;;24.26;55.05
81243;BME280;70716;50.074;14.496;2023-07-30T13:39:53;98510.97;;;24.40;53.54
81243;BME280;70716;50.074;14.496;2023-07-30T13:42:35;98514.41;;;24.51;53.18
81243;BME280;70716;50.074;14.496;2023-07-30T13:45:59;98499.53;;;24.31;51.80
81243;BME280;70716;50.074;14.496;2023-07-30T13:49:04;98497.09;;;24.36;51.48
81243;BME280;70716;50.074;14.496;2023-07-30T13:52:31;98491.97;;;23.97;52.28
81243;BME280;70716;50.074;14.496;2023-07-30T14:02:07;98487.94;;;24.02;56.37
81243;BME280;70716;50.074;14.496;2023-07-30T14:17:57;98492.47;;;23.89;55.76
81243;BME280;70716;50.074;14.496;2023-07-30T14:20:46;98493.94;;;23.63;55.84
81243;BME280;70716;50.074;14.496;2023-07-30T14:44:03;98495.59;;;23.01;58.24
81243;BME280;70716;50.074;14.496;2023-07-30T14:46:59;98502.47;;;22.76;59.65
81243;BME280;70716;50.074;14.496;2023-07-30T14:49:49;98508.47;;;22.70;59.32
81243;BME280;70716;50.074;14.496;2023-07-30T14:52:28;98499.34;;;22.70;59.89
81243;BME280;70716;50.074;14.496;2023-07-30T14:55:09;98494.72;;;22.49;60.53
81243;BME280;70716;50.074;14.496;2023-07-30T15:04:25;98485.28;;;22.29;60.85
81243;BME280;70716;50.074;14.496;2023-07-30T15:10:29;98492.78;;;22.32;60.72
81243;BME280;70716;50.074;14.496;2023-07-30T15:13:36;98480.50;;;22.33;60.92
81243;BME280;70716;50.074;14.496;2023-07-30T15:16:31;98477.75;;;22.26;61.19
81243;BME280;70716;50.074;14.496;2023-07-30T15:19:10;98484.44;;;22.35;61.49
81243;BME280;70716;50.074;14.496;2023-07-30T15:22:05;98485.31;;;22.18;62.68
81243;BME280;70716;50.074;14.496;2023-07-30T15:27:30;98475.44;;;21.99;62.03
81243;BME280;70716;50.074;14.496;2023-07-30T15:29:55;98479.47;;;21.73;61.88
81243;BME280;70716;50.074;14.496;2023-07-30T15:32:23;98483.81;;;21.78;63.19
81243;BME280;70716;50.074;14.496;2023-07-30T15:35:27;98491.72;;;21.94;64.40
81243;BME280;70716;50.074;14.496;2023-07-30T15:38:18;98501.63;;;21.88;64.41
81243;BME280;70716;50.074;14.496;2023-07-30T15:41:32;98510.00;;;21.66;66.43
81243;BME280;70716;50.074;14.496;2023-07-30T15:47:41;98535.34;;;21.40;67.59
81243;BME280;70716;50.074;14.496;2023-07-30T15:56:47;98552.28;;;20.92;68.75
81243;BME280;70716;50.074;14.496;2023-07-30T15:59:52;98558.09;;;20.48;70.00
81243;BME280;70716;50.074;14.496;2023-07-30T16:02:46;98561.13;;;20.29;70.86
81243;BME280;70716;50.074;14.496;2023-07-30T16:09:16;98568.81;;;19.91;69.60
81243;BME280;70716;50.074;14.496;2023-07-30T16:20:08;98592.69;;;19.59;70.93
81243;BME280;70716;50.074;14.496;2023-07-30T16:22:56;98603.84;;;19.73;70.71
81243;BME280;70716;50.074;14.496;2023-07-30T16:25:54;98603.50;;;19.82;69.42
81243;BME280;70716;50.074;14.496;2023-07-30T16:31:38;98588.22;;;19.98;68.81
81243;BME280;70716;50.074;14.496;2023-07-30T16:41:23;98617.34;;;20.40;66.06
81243;BME280;70716;50.074;14.496;2023-07-30T16:44:45;98608.06;;;20.07;68.02
81243;BME280;70716;50.074;14.496;2023-07-30T16:47:52;98606.94;;;19.24;70.62
81243;BME280;70716;50.074;14.496;2023-07-30T16:50:57;98605.78;;;18.88;72.33
81243;BME280;70716;50.074;14.496;2023-07-30T16:56:44;98612.38;;;18.79;72.67
81243;BME280;70716;50.074;14.496;2023-07-30T16:59:13;98619.28;;;18.96;71.70
81243;BME280;70716;50.074;14.496;2023-07-30T17:02:05;98628.03;;;19.02;71.75
81243;BME280;70716;50.074;14.496;2023-07-30T17:04:37;98628.78;;;18.99;72.01
81243;BME280;70716;50.074;14.496;2023-07-30T17:07:05;98626.97;;;19.17;71.36
81243;BME280;70716;50.074;14.496;2023-07-30T17:09:32;98621.66;;;19.35;70.96
81243;BME280;70716;50.074;14.496;2023-07-30T17:11:57;98623.75;;;19.49;70.29
81243;BME280;70716;50.074;14.496;2023-07-30T17:14:23;98619.97;;;19.64;69.37
81243;BME280;70716;50.074;14.496;2023-07-30T17:16:57;98627.13;;;19.72;69.00
81243;BME280;70716;50.074;14.496;2023-07-30T17:19:35;98631.13;;;19.78;69.13
81243;BME280;70716;50.074;14.496;2023-07-30T17:22:09;98626.84;;;19.84;68.30
81243;BME280;70716;50.074;14.496;2023-07-30T17:25:10;98647.03;;;19.88;68.84
81243;BME280;70716;50.074;14.496;2023-07-30T17:27:51;98650.09;;;19.79;69.22
81243;BME280;70716;50.074;14.496;2023-07-30T17:30:17;98655.59;;;19.76;69.61
81243;BME280;70716;50.074;14.496;2023-07-30T17:32:45;98660.31;;;19.72;69.85
81243;BME280;70716;50.074;14.496;2023-07-30T17:35:11;98653.91;;;19.64;70.68
81243;BME280;70716;50.074;14.496;2023-07-30T17:37:40;98647.91;;;19.52;70.47
81243;BME280;70716;50.074;14.496;2023-07-30T17:40:12;98649.41;;;19.49;71.31
81243;BME280;70716;50.074;14.496;2023-07-30T17:42:40;98635.16;;;19.43;71.27
81243;BME280;70716;50.074;14.496;2023-07-30T17:45:18;98636.66;;;19.37;71.86
81243;BME280;70716;50.074;14.496;2023-07-30T17:48:04;98644.25;;;19.44;71.90
81243;BME280;70716;50.074;14.496;2023-07-30T17:50:30;98667.97;;;19.49;72.79
81243;BME280;70716;50.074;14.496;2023-07-30T17:53:02;98668.25;;;19.36;75.22
81243;BME280;70716;50.074;14.496;2023-07-30T17:55:28;98659.56;;;19.38;75.27
81243;BME280;70716;50.074;14.496;2023-07-30T17:57:54;98670.16;;;19.32;76.21
81243;BME280;70716;50.074;14.496;2023-07-30T18:00:23;98671.78;;;19.37;76.42
81243;BME280;70716;50.074;14.496;2023-07-30T18:02:50;98689.59;;;19.39;75.45
81243;BME280;70716;50.074;14.496;2023-07-30T18:05:36;98684.41;;;19.34;74.94
81243;BME280;70716;50.074;14.496;2023-07-30T18:08:02;98684.66;;;18.89;76.78
81243;BME280;70716;50.074;14.496;2023-07-30T18:11:01;98701.22;;;18.89;76.93
81243;BME280;70716;50.074;14.496;2023-07-30T18:14:04;98705.28;;;18.68;76.17
81243;BME280;70716;50.074;14.496;2023-07-30T18:16:32;98710.38;;;18.66;76.00
81243;BME280;70716;50.074;14.496;2023-07-30T18:19:00;98717.44;;;18.64;74.60
81243;BME280;70716;50.074;14.496;2023-07-30T18:21:48;98721.00;;;18.64;73.33
81243;BME280;70716;50.074;14.496;2023-07-30T18:24:14;98731.72;;;18.69;71.99
81243;BME280;70716;50.074;14.496;2023-07-30T18:26:42;98728.53;;;18.67;70.52
81243;BME280;70716;50.074;14.496;2023-07-30T18:29:28;98734.81;;;18.64;69.43
81243;BME280;70716;50.074;14.496;2023-07-30T18:32:18;98743.44;;;18.63;67.80
81243;BME280;70716;50.074;14.496;2023-07-30T18:35:01;98737.84;;;18.59;67.69
81243;BME280;70716;50.074;14.496;2023-07-30T18:37:30;98746.44;;;18.54;67.95
81243;BME280;70716;50.074;14.496;2023-07-30T18:40:11;98753.50;;;18.52;67.96
81243;BME280;70716;50.074;14.496;2023-07-30T18:42:40;98748.72;;;18.48;68.70
81243;BME280;70716;50.074;14.496;2023-07-30T18:45:19;98756.63;;;18.50;68.52
81243;BME280;70716;50.074;14.496;2023-07-30T18:47:49;98767.16;;;18.41;69.08
81243;BME280;70716;50.074;14.496;2023-07-30T18:53:43;98777.34;;;18.37;68.92
81243;BME280;70716;50.074;14.496;2023-07-30T18:56:42;98773.31;;;18.31;69.49
81243;BME280;70716;50.074;14.496;2023-07-30T19:03:40;98788.25;;;18.30;68.65
81243;BME280;70716;50.074;14.496;2023-07-30T19:10:54;98792.44;;;18.20;70.46
81243;BME280;70716;50.074;14.496;2023-07-30T19:20:18;98792.97;;;17.64;72.32
81243;BME280;70716;50.074;14.496;2023-07-30T19:23:44;98802.09;;;17.49;72.80
81243;BME280;70716;50.074;14.496;2023-07-30T19:26:13;98806.97;;;17.36;72.76
81243;BME280;70716;50.074;14.496;2023-07-30T19:29:10;98810.31;;;17.26;73.48